createdAt,value
2023-04-11T00:02:45.033Z,80.52
2023-04-11T00:05:46.679Z,80.43
2023-04-11T00:08:48.231Z,80.76
2023-04-11T00:11:49.786Z,81.09
2023-04-11T00:14:51.818Z,81.19
2023-04-11T00:17:53.928Z,81.31
2023-04-11T00:20:55.838Z,81.18
2023-04-11T00:23:57.570Z,80.64
2023-04-11T00:26:59.351Z,80.74
2023-04-11T00:30:01.312Z,80.40
2023-04-11T00:33:02.909Z,80.41
2023-04-11T00:36:04.810Z,80.63
2023-04-11T00:39:06.965Z,80.59
2023-04-11T00:42:08.949Z,80.84
2023-04-11T00:45:11.147Z,80.70
2023-04-11T00:48:12.787Z,81.16
2023-04-11T00:51:19.011Z,81.62
2023-04-11T00:54:20.571Z,81.10
2023-04-11T00:57:22.292Z,80.60
2023-04-11T01:00:24.450Z,80.53
2023-04-11T01:03:26.523Z,80.46
2023-04-11T01:06:30.080Z,80.44
2023-04-11T01:09:33.278Z,80.49
2023-04-11T01:12:36.014Z,80.47
2023-04-11T01:15:37.539Z,80.39
2023-04-11T01:18:39.353Z,80.31
2023-04-11T01:21:41.328Z,80.41
2023-04-11T01:24:42.922Z,80.57
2023-04-11T01:27:44.810Z,80.58
2023-04-11T01:30:46.671Z,80.39
2023-04-11T01:33:48.501Z,80.46
2023-04-11T01:36:50.086Z,80.52
2023-04-11T01:39:52.133Z,80.42
2023-04-11T01:42:56.897Z,80.62
2023-04-11T01:45:58.360Z,80.35
2023-04-11T01:49:00.494Z,80.38
2023-04-11T01:52:02.857Z,80.37
2023-04-11T01:55:04.819Z,80.51
2023-04-11T01:58:06.439Z,80.53
2023-04-11T02:01:08.594Z,80.43
2023-04-11T02:04:10.649Z,80.27
2023-04-11T02:07:12.779Z,80.42
2023-04-11T02:10:14.335Z,80.53
2023-04-11T02:13:16.183Z,80.34
2023-04-11T02:16:18.152Z,80.19
2023-04-11T02:19:20.073Z,80.08
2023-04-11T02:22:21.692Z,80.31
2023-04-11T02:25:23.458Z,80.27
2023-04-11T02:28:25.001Z,80.44
2023-04-11T02:31:26.596Z,80.18
2023-04-11T02:34:28.349Z,80.34
2023-04-11T02:37:29.834Z,79.94
2023-04-11T02:40:31.550Z,80.13
2023-04-11T02:43:33.324Z,80.12
2023-04-11T02:46:35.098Z,80.01
2023-04-11T02:49:36.812Z,80.12
2023-04-11T02:52:38.855Z,79.86
2023-04-11T02:55:40.369Z,80.06
2023-04-11T02:58:42.231Z,79.91
2023-04-11T03:01:45.058Z,79.94
2023-04-11T03:04:46.627Z,79.97
2023-04-11T03:07:48.171Z,80.03
2023-04-11T03:10:49.697Z,80.36
2023-04-11T03:13:51.226Z,80.38
2023-04-11T03:16:52.982Z,80.49
2023-04-11T03:19:54.538Z,80.41
2023-04-11T03:22:56.117Z,80.36
2023-04-11T03:25:57.672Z,80.17
2023-04-11T03:28:59.272Z,79.79
2023-04-11T03:32:00.886Z,79.71
2023-04-11T03:35:02.509Z,79.87
2023-04-11T03:38:04.126Z,79.96
2023-04-11T03:41:05.987Z,80.22
2023-04-11T03:44:07.607Z,79.94
2023-04-11T03:47:09.232Z,80.24
2023-04-11T03:50:11.027Z,80.52
2023-04-11T03:53:12.595Z,80.49
2023-04-11T03:56:14.157Z,80.26
2023-04-11T03:59:15.764Z,80.55
2023-04-11T04:02:17.398Z,80.35
2023-04-11T04:05:19.143Z,80.55
2023-04-11T04:08:20.772Z,79.93
2023-04-11T04:11:22.297Z,79.92
2023-04-11T04:14:24.007Z,80.03
2023-04-11T04:17:25.625Z,80.26
2023-04-11T04:20:27.294Z,80.52
2023-04-11T04:23:29.085Z,80.36
2023-04-11T04:26:31.195Z,80.41
2023-04-11T04:29:32.829Z,80.80
2023-04-11T04:32:35.136Z,80.82
2023-04-11T04:35:36.829Z,80.97
2023-04-11T04:38:38.512Z,80.78
2023-04-11T04:41:40.114Z,80.79
2023-04-11T04:44:41.841Z,80.80
2023-04-11T04:47:43.328Z,80.68
2023-04-11T04:50:44.912Z,80.98
2023-04-11T04:53:46.523Z,81.11
2023-04-11T04:56:48.044Z,80.89
2023-04-11T04:59:49.626Z,81.39
2023-04-11T05:02:51.251Z,81.30
2023-04-11T05:05:52.765Z,81.29
2023-04-11T05:08:54.632Z,81.06
2023-04-11T05:11:56.366Z,80.98
2023-04-11T05:14:57.891Z,80.91
2023-04-11T05:17:59.617Z,80.60
2023-04-11T05:21:01.525Z,80.57
2023-04-11T05:24:03.465Z,80.96
2023-04-11T05:27:05.175Z,81.07
2023-04-11T05:30:06.980Z,80.85
2023-04-11T05:33:08.621Z,80.94
2023-04-11T05:36:10.202Z,81.04
2023-04-11T05:39:11.869Z,81.02
2023-04-11T05:42:14.923Z,81.71
2023-04-11T05:45:16.721Z,81.84
2023-04-11T05:48:18.361Z,81.87
2023-04-11T05:51:19.982Z,82.13
2023-04-11T05:54:31.682Z,82.06
2023-04-11T05:57:33.373Z,81.83
2023-04-11T06:00:35.247Z,81.58
2023-04-11T06:03:36.975Z,81.66
2023-04-11T06:06:38.561Z,81.45
2023-04-11T06:09:39.977Z,81.23
2023-04-11T06:12:41.748Z,81.16
2023-04-11T06:15:43.346Z,81.16
2023-04-11T06:18:45.111Z,81.69
2023-04-11T06:21:46.708Z,82.08
2023-04-11T06:24:48.232Z,81.57
2023-04-11T06:27:50.280Z,81.61
2023-04-11T06:30:51.946Z,81.43
2023-04-11T06:33:53.600Z,81.01
2023-04-11T06:36:55.251Z,80.90
2023-04-11T06:39:56.837Z,80.75
2023-04-11T06:42:58.588Z,80.65
2023-04-11T06:46:00.380Z,80.76
2023-04-11T06:49:01.901Z,80.37
2023-04-11T06:52:03.614Z,79.99
2023-04-11T06:55:06.098Z,79.42
2023-04-11T06:58:07.680Z,78.84
2023-04-11T07:01:09.317Z,78.76
2023-04-11T07:04:11.289Z,78.51
2023-04-11T07:07:12.970Z,78.42
2023-04-11T07:10:14.703Z,77.74
2023-04-11T07:13:16.351Z,77.69
2023-04-11T07:16:17.961Z,76.82
2023-04-11T07:19:19.524Z,75.97
2023-04-11T07:22:21.243Z,75.53
2023-04-11T07:25:26.443Z,75.20
2023-04-11T07:28:28.205Z,75.09
2023-04-11T07:31:29.754Z,75.23
2023-04-11T07:34:31.356Z,75.11
2023-04-11T07:37:32.958Z,75.44
2023-04-11T07:40:34.483Z,74.66
2023-04-11T07:43:36.284Z,74.60
2023-04-11T07:46:38.043Z,74.76
2023-04-11T07:49:39.768Z,73.67
2023-04-11T07:52:41.299Z,73.37
2023-04-11T07:55:42.883Z,71.32
2023-04-11T07:58:44.411Z,71.97
2023-04-11T08:01:46.212Z,72.63
2023-04-11T08:04:47.942Z,72.54
2023-04-11T08:07:49.545Z,73.02
2023-04-11T08:10:52.267Z,72.74
2023-04-11T08:13:54.215Z,72.59
2023-04-11T08:16:55.921Z,71.65
2023-04-11T08:19:57.801Z,71.19
2023-04-11T08:22:59.428Z,69.71
2023-04-11T08:26:00.999Z,68.19
2023-04-11T08:29:02.966Z,64.53
2023-04-11T08:32:04.984Z,66.21
2023-04-11T08:35:07.164Z,67.63
2023-04-11T08:38:09.432Z,67.33
2023-04-11T08:41:12.387Z,65.94
2023-04-11T08:44:13.993Z,65.22
2023-04-11T08:47:15.917Z,64.17
2023-04-11T08:50:17.524Z,66.66
2023-04-11T08:53:21.004Z,66.09
2023-04-11T08:56:22.592Z,64.29
2023-04-11T08:59:24.078Z,63.00
2023-04-11T09:02:26.371Z,63.37
2023-04-11T09:05:33.092Z,63.25
2023-04-11T09:08:38.356Z,65.21
2023-04-11T09:11:53.738Z,64.69
2023-04-11T09:14:55.325Z,62.27
2023-04-11T09:18:00.376Z,61.70
2023-04-11T09:21:07.412Z,59.02
2023-04-11T09:24:15.437Z,57.71
2023-04-11T09:27:17.534Z,58.71
2023-04-11T09:30:26.115Z,56.88
2023-04-11T09:33:27.792Z,56.05
2023-04-11T09:36:29.322Z,55.72
2023-04-11T09:39:31.164Z,56.03
2023-04-11T09:42:32.780Z,56.53
2023-04-11T09:45:44.204Z,56.98
2023-04-11T09:48:54.575Z,56.10
2023-04-11T09:51:57.785Z,55.76
2023-04-11T09:55:00.003Z,58.31
2023-04-11T09:58:02.275Z,54.23
2023-04-11T10:01:05.932Z,54.13
2023-04-11T10:04:07.519Z,53.79
2023-04-11T10:07:13.167Z,53.30
2023-04-11T10:10:22.133Z,52.79
2023-04-11T10:13:43.233Z,52.68
2023-04-11T10:17:17.891Z,53.15
2023-04-11T10:20:43.015Z,54.46
2023-04-11T10:24:18.153Z,55.43
2023-04-11T10:27:49.036Z,53.51
2023-04-11T10:31:10.797Z,49.58
2023-04-11T10:34:13.788Z,52.27
2023-04-11T10:37:15.644Z,52.09
2023-04-11T10:40:17.330Z,49.46
2023-04-11T10:43:19.707Z,50.57
2023-04-11T10:46:23.254Z,49.90
2023-04-11T10:49:33.336Z,50.08
2023-04-11T10:52:37.961Z,51.08
2023-04-11T10:55:50.262Z,49.46
2023-04-11T10:58:51.828Z,48.75
2023-04-11T11:01:57.038Z,48.85
2023-04-11T11:04:59.982Z,49.63
2023-04-11T11:08:01.565Z,46.02
2023-04-11T11:11:05.136Z,48.66
2023-04-11T11:14:06.654Z,46.43
2023-04-11T11:17:08.521Z,48.59
2023-04-11T11:20:17.823Z,48.79
2023-04-11T11:23:19.324Z,49.41
2023-04-11T11:26:20.931Z,47.85
2023-04-11T11:29:34.209Z,46.42
2023-04-11T11:32:35.849Z,50.63
2023-04-11T11:35:37.682Z,49.56
2023-04-11T11:38:39.739Z,51.52
2023-04-11T11:41:41.428Z,51.23
2023-04-11T11:44:42.979Z,50.17
2023-04-11T11:47:45.978Z,51.38
2023-04-11T11:50:47.581Z,52.71
2023-04-11T11:54:05.803Z,50.61
2023-04-11T11:57:07.523Z,50.54
2023-04-11T12:00:09.806Z,53.37
2023-04-11T12:03:11.609Z,52.86
2023-04-11T12:06:13.387Z,51.95
2023-04-11T12:09:14.970Z,53.44
2023-04-11T12:12:16.502Z,54.95
2023-04-11T12:15:19.926Z,54.75
2023-04-11T12:18:26.725Z,52.95
2023-04-11T12:21:28.637Z,51.72
2023-04-11T12:24:30.227Z,52.12
2023-04-11T12:27:31.795Z,51.14
2023-04-11T12:30:33.430Z,53.35
2023-04-11T12:33:35.605Z,53.14
2023-04-11T12:36:37.163Z,50.49
2023-04-11T12:39:38.681Z,50.87
2023-04-11T12:42:49.423Z,52.60
2023-04-11T12:45:57.610Z,53.22
2023-04-11T12:48:59.199Z,51.56
2023-04-11T12:52:00.722Z,51.25
2023-04-11T12:55:03.349Z,52.31
2023-04-11T12:58:05.040Z,51.12
2023-04-11T13:01:07.061Z,50.42
2023-04-11T13:04:09.237Z,49.76
2023-04-11T13:07:10.844Z,50.37
2023-04-11T13:10:13.158Z,51.62
2023-04-11T13:13:18.345Z,52.26
2023-04-11T13:16:20.450Z,52.81
2023-04-11T13:19:23.024Z,49.20
2023-04-11T13:22:24.871Z,48.02
2023-04-11T13:25:26.580Z,49.59
2023-04-11T13:28:28.097Z,47.61
2023-04-11T13:31:29.722Z,47.32
2023-04-11T13:34:31.457Z,49.86
2023-04-11T13:37:33.056Z,50.63
2023-04-11T13:40:34.591Z,48.86
2023-04-11T13:43:36.102Z,49.50
2023-04-11T13:46:37.609Z,49.03
2023-04-11T13:49:39.243Z,50.47
2023-04-11T13:52:41.222Z,50.44
2023-04-11T13:55:42.706Z,50.69
2023-04-11T13:58:44.359Z,50.46
2023-04-11T14:01:45.995Z,50.73
2023-04-11T14:04:47.779Z,49.98
2023-04-11T14:07:49.242Z,47.86
2023-04-11T14:10:50.916Z,49.69
2023-04-11T14:13:52.436Z,49.62
2023-04-11T14:16:54.288Z,49.63
2023-04-11T14:19:55.892Z,49.62
2023-04-11T14:22:57.481Z,49.36
2023-04-11T14:25:59.445Z,47.47
2023-04-11T14:29:01.002Z,48.79
2023-04-11T14:32:02.728Z,49.06
2023-04-11T14:35:04.940Z,48.43
2023-04-11T14:38:06.502Z,47.18
2023-04-11T14:41:09.701Z,48.55
2023-04-11T14:44:12.736Z,47.79
2023-04-11T14:47:22.475Z,47.91
2023-04-11T14:50:24.761Z,47.72
2023-04-11T14:53:27.203Z,47.93
2023-04-11T14:56:28.887Z,46.96
2023-04-11T14:59:30.476Z,46.83
2023-04-11T15:02:32.333Z,46.19
2023-04-11T15:05:34.121Z,44.74
2023-04-11T15:08:35.661Z,47.65
2023-04-11T15:11:37.602Z,48.28
2023-04-11T15:14:39.132Z,47.28
2023-04-11T15:17:42.564Z,47.66
2023-04-11T15:20:44.168Z,48.36
2023-04-11T15:23:45.790Z,48.84
2023-04-11T15:26:47.318Z,49.24
2023-04-11T15:29:48.946Z,49.93
2023-04-11T15:32:50.608Z,50.09
2023-04-11T15:35:52.906Z,48.48
2023-04-11T15:38:54.572Z,48.54
2023-04-11T15:41:56.077Z,49.73
2023-04-11T15:44:57.724Z,50.38
2023-04-11T15:47:59.324Z,51.28
2023-04-11T15:51:08.330Z,51.54
2023-04-11T15:54:09.835Z,52.23
2023-04-11T15:57:11.363Z,52.71
2023-04-11T16:00:13.539Z,52.78
2023-04-11T16:03:15.305Z,52.83
2023-04-11T16:06:17.244Z,53.02
2023-04-11T16:09:18.967Z,53.75
2023-04-11T16:12:20.518Z,54.20
2023-04-11T16:15:22.232Z,54.48
2023-04-11T16:18:23.723Z,55.08
2023-04-11T16:21:25.294Z,55.64
2023-04-11T16:24:28.855Z,56.48
2023-04-11T16:27:30.505Z,56.27
2023-04-11T16:30:32.201Z,56.58
2023-04-11T16:33:33.880Z,57.13
2023-04-11T16:36:35.770Z,57.95
2023-04-11T16:39:37.877Z,59.31
2023-04-11T16:42:39.472Z,60.99
2023-04-11T16:45:41.255Z,59.57
2023-04-11T16:48:43.212Z,59.31
2023-04-11T16:51:44.712Z,60.32
2023-04-11T16:54:46.399Z,60.44
2023-04-11T16:57:47.937Z,62.95
2023-04-11T17:00:50.319Z,63.97
2023-04-11T17:03:52.528Z,66.54
2023-04-11T17:06:54.373Z,68.49
2023-04-11T17:09:56.227Z,66.61
2023-04-11T17:12:58.382Z,67.76
2023-04-11T17:16:00.129Z,68.00
2023-04-11T17:19:01.856Z,67.04
2023-04-11T17:22:03.551Z,67.18
2023-04-11T17:25:05.779Z,67.37
2023-04-11T17:28:07.550Z,67.25
2023-04-11T17:31:13.508Z,67.64
2023-04-11T17:34:15.315Z,68.06
2023-04-11T17:37:16.818Z,68.57
2023-04-11T17:40:18.572Z,68.63
2023-04-11T17:43:20.302Z,72.55
2023-04-11T17:46:22.081Z,70.35
2023-04-11T17:49:23.681Z,69.76
2023-04-11T17:52:25.304Z,69.85
2023-04-11T17:55:27.177Z,69.94
2023-04-11T17:58:29.197Z,70.08
2023-04-11T18:01:31.024Z,69.94
2023-04-11T18:04:32.841Z,69.61
2023-04-11T18:07:34.490Z,69.92
2023-04-11T18:10:36.189Z,69.68
2023-04-11T18:13:38.077Z,69.53
2023-04-11T18:16:39.826Z,69.36
2023-04-11T18:19:41.458Z,69.42
2023-04-11T18:22:48.091Z,69.57
2023-04-11T18:25:49.806Z,69.46
2023-04-11T18:28:51.239Z,69.50
2023-04-11T18:32:19.619Z,69.67
2023-04-11T18:35:14.815Z,69.68
2023-04-11T18:38:16.643Z,69.84
2023-04-11T18:41:18.815Z,69.72
2023-04-11T18:44:20.833Z,69.61
2023-04-11T18:47:22.669Z,70.01
2023-04-11T18:50:24.622Z,69.97
2023-04-11T18:53:26.761Z,70.14
2023-04-11T18:56:28.424Z,70.11
2023-04-11T18:59:31.309Z,70.06
2023-04-11T19:02:36.224Z,70.18
2023-04-11T19:05:37.997Z,70.32
2023-04-11T19:08:40.415Z,70.65
2023-04-11T19:11:41.843Z,72.28
2023-04-11T19:14:43.566Z,72.51
2023-04-11T19:17:45.322Z,72.77
2023-04-11T19:20:46.998Z,72.28
2023-04-11T19:23:48.986Z,72.44
2023-04-11T19:26:51.515Z,72.84
2023-04-11T19:29:59.284Z,73.27
2023-04-11T19:33:04.547Z,74.18
2023-04-11T19:36:06.613Z,74.53
2023-04-11T19:39:08.307Z,74.99
2023-04-11T19:42:09.845Z,74.54
2023-04-11T19:45:12.017Z,73.90
2023-04-11T19:48:14.318Z,73.65
2023-04-11T19:51:15.911Z,73.85
2023-04-11T19:54:17.618Z,74.80
2023-04-11T19:57:19.420Z,74.59
2023-04-11T20:00:25.083Z,74.14
2023-04-11T20:03:28.378Z,74.37
2023-04-11T20:06:30.016Z,74.08
2023-04-11T20:09:31.865Z,74.42
2023-04-11T20:12:34.270Z,74.46
2023-04-11T20:15:35.913Z,74.61
2023-04-11T20:18:37.525Z,74.66
2023-04-11T20:21:39.112Z,74.71
2023-04-11T20:24:40.853Z,74.53
2023-04-11T20:27:42.443Z,74.54
2023-04-11T20:30:44.085Z,74.47
2023-04-11T20:33:45.603Z,74.96
2023-04-11T20:36:47.326Z,74.86
2023-04-11T20:39:49.782Z,74.69
2023-04-11T20:42:51.289Z,74.51
2023-04-11T20:45:52.815Z,74.68
2023-04-11T20:48:54.343Z,74.54
2023-04-11T20:51:55.839Z,74.76
2023-04-11T20:54:57.291Z,74.57
2023-04-11T20:57:58.988Z,74.50
2023-04-11T21:01:00.664Z,74.79
2023-04-11T21:06:03.881Z,74.90
2023-04-11T21:09:05.900Z,74.69
2023-04-11T21:12:07.417Z,74.80
2023-04-11T21:15:09.553Z,74.92
2023-04-11T21:18:11.314Z,74.86
2023-04-11T21:21:13.443Z,75.08
2023-04-11T21:24:15.059Z,75.00
2023-04-11T21:27:16.606Z,74.80
2023-04-11T21:30:18.226Z,74.84
2023-04-11T21:33:20.135Z,74.82
2023-04-11T21:36:21.750Z,74.86
2023-04-11T21:39:23.341Z,75.05
2023-04-11T21:42:24.877Z,74.89
2023-04-11T21:45:26.446Z,74.81
2023-04-11T21:48:28.060Z,74.95
2023-04-11T21:51:29.548Z,74.75
2023-04-11T21:54:33.617Z,74.62
2023-04-11T21:57:35.519Z,74.82
2023-04-11T22:00:37.060Z,74.78
2023-04-11T22:03:38.942Z,74.78
2023-04-11T22:06:40.442Z,74.89
2023-04-11T22:09:42.172Z,74.79
2023-04-11T22:12:43.714Z,74.63
2023-04-11T22:15:46.404Z,74.65
2023-04-11T22:18:47.906Z,74.48
2023-04-11T22:21:49.503Z,74.47
2023-04-11T22:24:51.089Z,74.41
2023-04-11T22:27:52.620Z,74.70
2023-04-11T22:30:54.201Z,74.47
2023-04-11T22:33:56.349Z,74.46
2023-04-11T22:36:58.400Z,74.61
2023-04-11T22:40:00.122Z,74.48
2023-04-11T22:43:02.002Z,74.44
2023-04-11T22:46:03.832Z,74.49
2023-04-11T22:49:08.965Z,74.43
2023-04-11T22:52:11.509Z,74.63
2023-04-11T22:55:13.411Z,74.46
2023-04-11T22:58:14.974Z,74.51
2023-04-11T23:01:16.559Z,74.45
2023-04-11T23:04:19.186Z,74.47
2023-04-11T23:07:20.854Z,74.58
2023-04-11T23:10:22.618Z,74.49
2023-04-11T23:13:24.268Z,74.54
2023-04-11T23:16:25.819Z,74.47
2023-04-11T23:19:27.569Z,74.56
2023-04-11T23:22:29.336Z,74.78
2023-04-11T23:25:31.175Z,74.75
2023-04-11T23:28:32.843Z,74.79
2023-04-11T23:31:34.370Z,74.78
2023-04-11T23:34:36.002Z,74.74
2023-04-11T23:37:37.498Z,74.88
2023-04-11T23:40:39.279Z,74.98
2023-04-11T23:43:40.973Z,75.00
2023-04-11T23:46:42.665Z,74.92
2023-04-11T23:49:44.378Z,75.00
2023-04-11T23:52:45.908Z,75.03
2023-04-11T23:55:47.516Z,75.21
2023-04-11T23:58:49.247Z,75.08
